Terminal Aerodrome Forecast
Issued by NWS

Home | Current Version | Previous Version | Text Only | Print | Product List | Glossary On
Versions: 1 2 3 4 5 6 7 8 9 10 11 12 13 14 15 16
021
FTUS44 KEPZ 192320
TAFTCS
TAF
KTCS 192320Z 2000/2024 15005KT P6SM SKC
     FM200400 32006KT P6SM SCT250
     FM201200 VRB04KT P6SM BKN250
     FM202000 17007KT P6SM BKN250=

USA.gov is the U.S. government's official web portal to all federal, state and local government web resources and services.